Time;durP1;ratioP1;P1;durP2;ratioP2;P2;SDS_P1;SDS_P2;PMS_P1;PMS_P2;Temp;Humidity;BMP_temperature;BMP_pressure;BME280_temperature;BME280_humidity;BME280_pressure;Samples;Min_cycle;Max_cycle;Signal;HPM_P1;HPM_P2
2022/11/14 00:00:59;;;;;;;9.98;8.32;;;;;;;;;;5049668;28;20249;-84
2022/11/14 00:03:26;;;;;;;10.40;8.68;;;;;;;;;;5047390;28;20252;-84
2022/11/14 00:05:54;;;;;;;8.85;7.95;;;;;;;;;;5037281;28;20297;-84
2022/11/14 00:08:24;;;;;;;9.35;7.55;;;;;;;;;;5036103;28;20289;-85
2022/11/14 00:10:53;;;;;;;9.32;7.25;;;;;;;;;;5037234;28;20223;-83
2022/11/14 00:13:21;;;;;;;10.02;7.47;;;;;;;;;;5037299;28;20261;-84
2022/11/14 00:15:53;;;;;;;9.55;7.97;;;;;;;;;;5037405;28;20293;-84
2022/11/14 00:18:21;;;;;;;9.05;7.28;;;;;;;;;;5036892;28;20203;-84
2022/11/14 00:20:48;;;;;;;8.23;7.13;;;;;;;;;;5051936;28;20305;-84
2022/11/14 00:23:16;;;;;;;21.30;11.98;;;;;;;;;;5056668;28;20221;-85
2022/11/14 00:25:44;;;;;;;14.50;9.93;;;;;;;;;;5056894;28;20289;-84
2022/11/14 00:28:14;;;;;;;9.43;8.15;;;;;;;;;;5055818;28;20599;-84
2022/11/14 00:30:41;;;;;;;11.93;8.27;;;;;;;;;;5057378;28;20213;-84
2022/11/14 00:33:09;;;;;;;9.80;7.47;;;;;;;;;;5056596;28;20676;-84
2022/11/14 00:35:36;;;;;;;12.23;10.05;;;;;;;;;;5056200;28;20210;-85
2022/11/14 00:38:04;;;;;;;12.50;9.88;;;;;;;;;;5056910;28;20225;-83
2022/11/14 00:40:31;;;;;;;13.88;9.73;;;;;;;;;;5056367;28;20253;-84
2022/11/14 00:42:59;;;;;;;12.05;8.90;;;;;;;;;;5055861;28;20288;-85
2022/11/14 00:45:27;;;;;;;11.82;10.10;;;;;;;;;;5056707;28;20269;-84
2022/11/14 00:47:55;;;;;;;9.57;8.57;;;;;;;;;;5056772;28;20316;-84
2022/11/14 00:50:22;;;;;;;10.80;9.13;;;;;;;;;;5055884;28;20325;-84
2022/11/14 00:52:50;;;;;;;9.48;8.18;;;;;;;;;;5056064;28;20236;-84
2022/11/14 00:55:17;;;;;;;9.05;7.80;;;;;;;;;;5055764;28;20284;-84
2022/11/14 00:57:45;;;;;;;10.30;8.45;;;;;;;;;;5055918;28;20225;-84
2022/11/14 01:00:14;;;;;;;10.13;8.68;;;;;;;;;;5055311;28;20694;-84
2022/11/14 01:02:43;;;;;;;9.32;7.78;;;;;;;;;;5055568;28;20581;-83
2022/11/14 01:05:11;;;;;;;9.75;7.82;;;;;;;;;;5055076;28;20347;-84
2022/11/14 01:07:38;;;;;;;11.23;8.32;;;;;;;;;;5055222;28;20218;-83
2022/11/14 01:10:07;;;;;;;10.40;8.18;;;;;;;;;;5054251;28;20308;-83
2022/11/14 01:12:35;;;;;;;9.20;7.47;;;;;;;;;;5055459;28;20637;-84
2022/11/14 01:15:02;;;;;;;10.32;8.57;;;;;;;;;;5055125;28;20292;-83
2022/11/14 01:17:29;;;;;;;10.77;8.27;;;;;;;;;;5055838;28;20284;-84
2022/11/14 01:19:58;;;;;;;11.88;9.48;;;;;;;;;;5054238;28;20290;-85
2022/11/14 01:22:27;;;;;;;10.07;8.70;;;;;;;;;;5055245;28;20233;-83
2022/11/14 01:24:57;;;;;;;9.13;8.15;;;;;;;;;;5055284;28;20209;-84
2022/11/14 01:27:24;;;;;;;10.40;8.50;;;;;;;;;;5054956;28;20609;-84
2022/11/14 01:29:52;;;;;;;11.88;9.57;;;;;;;;;;5055412;28;20249;-83
2022/11/14 01:32:19;;;;;;;11.38;9.68;;;;;;;;;;5055238;28;20235;-85
2022/11/14 01:34:47;;;;;;;10.00;8.80;;;;;;;;;;5077463;22;20817;-83
2022/11/14 01:37:16;;;;;;;11.00;9.32;;;;;;;;;;5013025;28;20305;-82
2022/11/14 01:39:43;;;;;;;11.88;9.20;;;;;;;;;;5013444;28;20313;-82
2022/11/14 01:42:11;;;;;;;7.88;6.60;;;;;;;;;;5013872;28;20203;-82
2022/11/14 01:44:46;;;;;;;8.90;7.40;;;;;;;;;;5014121;28;20202;-82
2022/11/14 01:47:18;;;;;;;9.38;6.93;;;;;;;;;;5013872;28;20312;-81
2022/11/14 01:49:48;;;;;;;8.13;7.07;;;;;;;;;;5013841;28;20688;-83
2022/11/14 01:52:20;;;;;;;7.57;6.32;;;;;;;;;;5014239;28;20556;-84
2022/11/14 01:54:51;;;;;;;9.20;7.53;;;;;;;;;;5013254;28;20278;-85
2022/11/14 01:57:23;;;;;;;7.38;6.57;;;;;;;;;;5014024;28;20618;-85
2022/11/14 01:59:53;;;;;;;10.25;9.15;;;;;;;;;;5013553;28;20277;-84
2022/11/14 02:02:24;;;;;;;10.55;8.18;;;;;;;;;;5014125;28;20245;-84
2022/11/14 02:04:55;;;;;;;8.77;7.88;;;;;;;;;;5013937;28;20226;-84
2022/11/14 02:07:25;;;;;;;9.32;8.32;;;;;;;;;;5014182;28;20353;-83
2022/11/14 02:09:53;;;;;;;8.20;7.35;;;;;;;;;;5013999;28;20265;-84
2022/11/14 02:12:21;;;;;;;7.45;6.53;;;;;;;;;;5013823;28;20245;-84
2022/11/14 02:14:52;;;;;;;9.75;8.48;;;;;;;;;;5013660;28;20286;-84
2022/11/14 02:17:20;;;;;;;9.75;7.32;;;;;;;;;;5013865;28;20215;-82
2022/11/14 02:19:50;;;;;;;11.00;8.20;;;;;;;;;;5013376;28;20305;-83
2022/11/14 02:22:19;;;;;;;11.52;9.32;;;;;;;;;;5013546;28;20219;-83
2022/11/14 02:24:47;;;;;;;11.15;9.30;;;;;;;;;;5013916;28;20724;-84
2022/11/14 02:27:15;;;;;;;10.18;8.65;;;;;;;;;;5013829;28;20201;-84
2022/11/14 02:29:43;;;;;;;11.32;8.38;;;;;;;;;;5013582;28;20287;-85
2022/11/14 02:32:10;;;;;;;9.48;7.65;;;;;;;;;;5017611;28;20207;-84
2022/11/14 02:34:37;;;;;;;10.40;7.97;;;;;;;;;;5017631;28;20637;-85
2022/11/14 02:37:05;;;;;;;8.98;7.00;;;;;;;;;;5017166;28;20301;-84
2022/11/14 02:39:34;;;;;;;11.57;8.60;;;;;;;;;;5017741;28;20255;-85
2022/11/14 02:42:01;;;;;;;11.88;10.32;;;;;;;;;;5017541;28;20245;-83
2022/11/14 02:44:29;;;;;;;8.85;7.45;;;;;;;;;;5017262;28;20348;-83
2022/11/14 02:46:59;;;;;;;12.15;9.35;;;;;;;;;;5017389;28;20209;-84
2022/11/14 02:49:26;;;;;;;11.55;7.85;;;;;;;;;;5018874;28;20309;-84
2022/11/14 02:51:53;;;;;;;10.30;7.75;;;;;;;;;;5036659;28;20234;-84
2022/11/14 02:54:21;;;;;;;7.95;6.82;;;;;;;;;;5036425;28;20289;-87
2022/11/14 02:56:50;;;;;;;9.18;7.10;;;;;;;;;;5036212;28;20198;-86
2022/11/14 02:59:17;;;;;;;8.93;8.02;;;;;;;;;;5036635;28;20838;-87
2022/11/14 03:01:45;;;;;;;7.65;6.93;;;;;;;;;;5036645;28;20221;-85
2022/11/14 03:04:12;;;;;;;8.73;7.53;;;;;;;;;;5036799;28;20730;-86
2022/11/14 03:06:40;;;;;;;8.10;6.97;;;;;;;;;;5036647;28;20231;-84
2022/11/14 03:09:07;;;;;;;8.45;7.53;;;;;;;;;;5037135;28;20257;-86
2022/11/14 03:11:35;;;;;;;6.85;6.13;;;;;;;;;;5037197;28;20296;-86
2022/11/14 03:14:11;;;;;;;7.20;6.30;;;;;;;;;;5037269;28;20250;-85
2022/11/14 03:16:39;;;;;;;10.20;9.10;;;;;;;;;;5037042;28;20233;-84
2022/11/14 03:19:06;;;;;;;8.73;7.65;;;;;;;;;;5036560;28;20285;-83
2022/11/14 03:21:34;;;;;;;7.43;5.45;;;;;;;;;;5036618;28;20297;-84
2022/11/14 03:24:01;;;;;;;7.22;6.45;;;;;;;;;;5036501;28;20293;-85
2022/11/14 03:26:29;;;;;;;6.40;5.65;;;;;;;;;;5036540;28;20299;-86
2022/11/14 03:28:57;;;;;;;6.40;5.80;;;;;;;;;;5036152;28;20314;-84
2022/11/14 03:31:26;;;;;;;6.15;5.20;;;;;;;;;;5036451;28;20289;-84
2022/11/14 03:33:53;;;;;;;4.40;4.00;;;;;;;;;;5036176;28;20337;-85
2022/11/14 03:36:21;;;;;;;8.45;7.10;;;;;;;;;;5036361;28;20256;-84
2022/11/14 03:38:48;;;;;;;4.78;4.25;;;;;;;;;;5036461;28;20198;-83
2022/11/14 03:41:16;;;;;;;5.38;4.55;;;;;;;;;;5035788;28;20671;-84
2022/11/14 03:43:43;;;;;;;7.20;5.80;;;;;;;;;;5036039;28;20279;-84
2022/11/14 03:46:11;;;;;;;6.03;4.90;;;;;;;;;;5036293;28;20293;-85
2022/11/14 03:48:40;;;;;;;6.47;5.85;;;;;;;;;;5035795;28;20218;-84
2022/11/14 03:51:08;;;;;;;4.97;4.47;;;;;;;;;;5036339;28;20290;-85
2022/11/14 03:53:36;;;;;;;6.40;5.78;;;;;;;;;;5036283;28;20723;-86
2022/11/14 03:56:03;;;;;;;6.05;5.45;;;;;;;;;;5036431;28;20728;-85
2022/11/14 03:58:31;;;;;;;5.78;4.45;;;;;;;;;;5035818;28;20248;-85
2022/11/14 04:00:58;;;;;;;6.15;5.55;;;;;;;;;;5035878;28;20222;-87
2022/11/14 04:03:26;;;;;;;8.10;6.45;;;;;;;;;;5035858;28;20253;-87
2022/11/14 04:05:55;;;;;;;4.85;4.43;;;;;;;;;;5035900;28;20265;-87
2022/11/14 04:08:22;;;;;;;5.20;4.70;;;;;;;;;;5035268;28;20294;-86
2022/11/14 04:10:50;;;;;;;7.25;5.78;;;;;;;;;;5035441;28;20225;-85
2022/11/14 04:13:20;;;;;;;5.97;5.22;;;;;;;;;;5035625;28;20230;-87
2022/11/14 04:15:53;;;;;;;6.05;5.45;;;;;;;;;;5035844;28;20277;-86
2022/11/14 04:18:21;;;;;;;5.68;5.05;;;;;;;;;;5035812;28;20221;-84
2022/11/14 04:20:48;;;;;;;6.38;5.60;;;;;;;;;;5022311;28;20231;-86
2022/11/14 04:23:17;;;;;;;6.40;5.68;;;;;;;;;;5015528;28;20289;-83
2022/11/14 04:25:46;;;;;;;7.10;6.40;;;;;;;;;;5015822;28;20290;-85
2022/11/14 04:28:14;;;;;;;7.07;6.30;;;;;;;;;;5016272;28;20194;-84
2022/11/14 04:30:43;;;;;;;7.00;6.22;;;;;;;;;;5015859;28;20311;-82
2022/11/14 04:33:11;;;;;;;7.57;6.18;;;;;;;;;;5015895;28;20226;-86
2022/11/14 04:35:39;;;;;;;6.28;5.68;;;;;;;;;;5015688;28;20290;-86
2022/11/14 04:38:06;;;;;;;7.35;6.05;;;;;;;;;;5016172;28;20612;-83
2022/11/14 04:40:35;;;;;;;6.55;5.93;;;;;;;;;;5015128;28;20230;-84
2022/11/14 04:43:03;;;;;;;7.60;6.65;;;;;;;;;;5015499;28;20234;-83
2022/11/14 04:45:30;;;;;;;10.40;7.90;;;;;;;;;;5015911;28;20236;-83
2022/11/14 04:47:58;;;;;;;8.52;6.93;;;;;;;;;;5016249;28;20214;-84
2022/11/14 04:50:25;;;;;;;7.43;6.60;;;;;;;;;;5015360;28;20245;-86
2022/11/14 04:52:53;;;;;;;6.60;5.90;;;;;;;;;;5015131;28;20290;-83
2022/11/14 04:55:21;;;;;;;7.63;6.07;;;;;;;;;;5015236;28;20235;-83
2022/11/14 04:57:56;;;;;;;5.55;4.47;;;;;;;;;;5019275;28;20249;-85
2022/11/14 05:00:24;;;;;;;7.18;5.63;;;;;;;;;;5034620;28;20218;-83
2022/11/14 05:02:51;;;;;;;8.82;6.78;;;;;;;;;;5035125;28;20264;-84
2022/11/14 05:05:19;;;;;;;6.57;5.50;;;;;;;;;;5034506;28;20242;-86
2022/11/14 05:07:46;;;;;;;8.55;7.60;;;;;;;;;;5034388;28;20250;-87
2022/11/14 05:10:14;;;;;;;7.18;5.57;;;;;;;;;;5034655;28;20230;-87
2022/11/14 05:12:42;;;;;;;7.30;6.28;;;;;;;;;;5034615;28;20290;-84
2022/11/14 05:15:11;;;;;;;6.78;6.07;;;;;;;;;;5035014;28;20673;-86
2022/11/14 05:17:39;;;;;;;6.32;5.63;;;;;;;;;;5034080;28;20304;-86
2022/11/14 05:20:08;;;;;;;6.03;5.18;;;;;;;;;;5035041;28;20313;-87
2022/11/14 05:22:35;;;;;;;5.90;5.28;;;;;;;;;;5034449;28;20293;-83
2022/11/14 05:25:03;;;;;;;7.80;6.97;;;;;;;;;;5034722;28;20723;-85
2022/11/14 05:27:30;;;;;;;7.55;6.72;;;;;;;;;;5034169;28;20291;-85
2022/11/14 05:29:58;;;;;;;6.43;5.80;;;;;;;;;;5033513;28;20321;-85
2022/11/14 05:32:27;;;;;;;6.25;5.65;;;;;;;;;;5034444;28;20885;-83
2022/11/14 05:34:54;;;;;;;6.68;5.90;;;;;;;;;;5033574;28;20289;-84
2022/11/14 05:37:22;;;;;;;6.32;5.72;;;;;;;;;;5033475;28;20196;-83
2022/11/14 05:39:49;;;;;;;5.90;5.25;;;;;;;;;;5033280;28;20348;-85
2022/11/14 05:42:16;;;;;;;6.10;5.40;;;;;;;;;;5032861;28;20456;-83
2022/11/14 05:44:44;;;;;;;5.22;4.72;;;;;;;;;;5034857;28;20297;-84
2022/11/14 05:47:11;;;;;;;7.22;6.53;;;;;;;;;;5035823;28;20356;-86
2022/11/14 05:49:40;;;;;;;7.90;6.28;;;;;;;;;;5029608;28;20313;-83
2022/11/14 05:52:08;;;;;;;8.32;7.00;;;;;;;;;;5014014;28;20341;-83
2022/11/14 05:54:35;;;;;;;9.18;8.02;;;;;;;;;;5014054;28;20233;-84
2022/11/14 05:57:03;;;;;;;10.00;7.32;;;;;;;;;;5013998;28;20218;-83
2022/11/14 05:59:30;;;;;;;8.45;7.65;;;;;;;;;;5013367;28;20230;-83
2022/11/14 06:01:58;;;;;;;8.63;6.80;;;;;;;;;;5013759;28;20274;-82
2022/11/14 06:04:26;;;;;;;7.65;6.60;;;;;;;;;;5013740;28;20229;-85
2022/11/14 06:06:54;;;;;;;7.80;6.95;;;;;;;;;;5017737;28;20660;-86
2022/11/14 06:09:22;;;;;;;8.63;7.78;;;;;;;;;;5016828;28;20427;-86
2022/11/14 06:11:50;;;;;;;10.63;7.20;;;;;;;;;;5017216;28;20286;-86
2022/11/14 06:14:17;;;;;;;7.35;6.65;;;;;;;;;;5017414;28;20577;-84
2022/11/14 06:16:45;;;;;;;6.88;6.13;;;;;;;;;;5017708;28;20364;-84
2022/11/14 06:19:12;;;;;;;8.40;6.97;;;;;;;;;;5017819;28;20338;-83
2022/11/14 06:21:40;;;;;;;6.47;5.80;;;;;;;;;;5018115;28;20234;-85
2022/11/14 06:24:09;;;;;;;6.63;5.93;;;;;;;;;;5017612;28;20289;-84
2022/11/14 06:26:36;;;;;;;8.55;7.03;;;;;;;;;;5017725;28;20282;-82
2022/11/14 06:29:04;;;;;;;9.75;7.97;;;;;;;;;;5017143;28;20238;-85
2022/11/14 06:31:31;;;;;;;9.40;7.32;;;;;;;;;;5017148;28;20703;-83
2022/11/14 06:33:59;;;;;;;7.07;6.40;;;;;;;;;;5017300;28;20209;-82
2022/11/14 06:36:26;;;;;;;8.93;8.02;;;;;;;;;;5017211;28;20314;-85
2022/11/14 06:38:54;;;;;;;8.18;7.38;;;;;;;;;;5022330;28;20219;-83
2022/11/14 06:41:23;;;;;;;8.27;6.60;;;;;;;;;;5030076;28;20794;-84
2022/11/14 06:43:53;;;;;;;7.07;6.38;;;;;;;;;;5057099;28;20292;-84
2022/11/14 06:46:22;;;;;;;6.22;5.55;;;;;;;;;;5057053;28;20574;-83
2022/11/14 06:48:51;;;;;;;9.88;7.53;;;;;;;;;;5057674;28;20239;-85
2022/11/14 06:51:18;;;;;;;9.77;8.88;;;;;;;;;;5042551;28;20311;-82
2022/11/14 06:53:46;;;;;;;6.43;5.93;;;;;;;;;;5040246;28;20186;-83
2022/11/14 06:56:15;;;;;;;6.25;5.60;;;;;;;;;;5040729;28;20222;-82
2022/11/14 06:58:46;;;;;;;6.32;5.68;;;;;;;;;;5039837;28;20240;-85
2022/11/14 07:01:16;;;;;;;9.70;7.88;;;;;;;;;;5040951;28;20206;-83
2022/11/14 07:03:44;;;;;;;6.85;5.75;;;;;;;;;;5038445;28;20206;-85
2022/11/14 07:06:16;;;;;;;5.43;4.88;;;;;;;;;;5040076;28;20294;-84
2022/11/14 07:08:43;;;;;;;6.15;5.55;;;;;;;;;;5039234;28;20554;-86
2022/11/14 07:11:21;;;;;;;6.45;5.85;;;;;;;;;;5050287;22;20249;-86
2022/11/14 07:13:51;;;;;;;7.10;6.43;;;;;;;;;;5035657;28;20195;-85
2022/11/14 07:16:18;;;;;;;8.00;6.55;;;;;;;;;;5043278;28;20614;-86
2022/11/14 07:18:46;;;;;;;6.10;5.50;;;;;;;;;;5036231;28;20221;-87
2022/11/14 07:21:14;;;;;;;6.55;5.63;;;;;;;;;;5020269;28;20247;-85
2022/11/14 07:23:42;;;;;;;5.55;5.05;;;;;;;;;;5020952;28;20283;-86
2022/11/14 07:26:12;;;;;;;5.72;4.45;;;;;;;;;;5021797;28;20249;-86
2022/11/14 07:28:42;;;;;;;4.22;3.92;;;;;;;;;;5021958;28;20234;-86
2022/11/14 07:31:15;;;;;;;5.93;5.43;;;;;;;;;;5020984;28;20234;-86
2022/11/14 07:33:43;;;;;;;6.13;5.53;;;;;;;;;;5020280;28;20226;-86
2022/11/14 07:36:13;;;;;;;5.30;4.80;;;;;;;;;;5019994;28;20199;-86
2022/11/14 07:38:40;;;;;;;8.25;7.30;;;;;;;;;;5024935;28;20199;-86
2022/11/14 07:41:10;;;;;;;6.07;5.47;;;;;;;;;;5020220;28;20309;-86
2022/11/14 07:43:38;;;;;;;9.23;6.90;;;;;;;;;;5028790;28;20267;-87
2022/11/14 07:46:08;;;;;;;7.00;6.32;;;;;;;;;;5020117;28;20250;-86
2022/11/14 07:48:38;;;;;;;7.80;7.00;;;;;;;;;;5019189;28;20230;-87
2022/11/14 07:51:07;;;;;;;8.45;7.55;;;;;;;;;;5020231;28;20290;-86
2022/11/14 07:53:35;;;;;;;10.43;8.00;;;;;;;;;;5033087;28;20260;-86
2022/11/14 07:56:05;;;;;;;8.63;7.78;;;;;;;;;;5040465;28;20285;-86
2022/11/14 07:58:36;;;;;;;7.70;6.97;;;;;;;;;;5040038;28;20225;-86
2022/11/14 08:01:05;;;;;;;5.72;5.13;;;;;;;;;;5039227;28;20301;-87
2022/11/14 08:03:33;;;;;;;9.65;8.35;;;;;;;;;;5037579;28;20303;-87
2022/11/14 08:06:03;;;;;;;14.38;10.15;;;;;;;;;;5036900;28;20298;-87
2022/11/14 08:08:31;;;;;;;10.85;9.25;;;;;;;;;;5036456;28;20193;-86
2022/11/14 08:10:58;;;;;;;11.45;9.75;;;;;;;;;;5033304;28;20278;-86
2022/11/14 08:13:27;;;;;;;10.80;8.80;;;;;;;;;;5018083;28;20214;-86
2022/11/14 08:15:55;;;;;;;9.60;8.68;;;;;;;;;;5019962;28;20286;-85
2022/11/14 08:18:23;;;;;;;10.73;8.75;;;;;;;;;;5019200;28;20214;-86
2022/11/14 08:20:50;;;;;;;11.10;9.43;;;;;;;;;;5020480;28;20243;-86
2022/11/14 08:23:19;;;;;;;9.43;7.68;;;;;;;;;;5018888;28;20675;-85
2022/11/14 08:25:47;;;;;;;10.50;8.77;;;;;;;;;;5020309;28;20283;-85
2022/11/14 08:28:15;;;;;;;12.30;9.20;;;;;;;;;;5019249;28;20206;-86
2022/11/14 08:30:42;;;;;;;11.35;9.45;;;;;;;;;;5020493;28;20333;-86
2022/11/14 08:33:10;;;;;;;12.43;10.10;;;;;;;;;;5020574;28;20234;-85
2022/11/14 08:35:38;;;;;;;12.38;9.73;;;;;;;;;;5018994;28;20199;-86
2022/11/14 08:38:05;;;;;;;11.32;9.07;;;;;;;;;;5018201;28;20741;-86
2022/11/14 08:40:44;;;;;;;11.77;9.80;;;;;;;;;;5017773;28;20230;-87
2022/11/14 08:43:12;;;;;;;11.52;10.13;;;;;;;;;;5018295;28;20202;-87
2022/11/14 08:45:39;;;;;;;13.20;10.73;;;;;;;;;;5015499;28;20268;-85
2022/11/14 08:48:07;;;;;;;11.95;10.13;;;;;;;;;;5012179;28;20649;-84
2022/11/14 08:50:34;;;;;;;11.55;10.25;;;;;;;;;;5013108;28;20231;-83
2022/11/14 08:53:02;;;;;;;12.32;10.43;;;;;;;;;;5013772;28;20670;-83
2022/11/14 08:55:29;;;;;;;10.85;9.75;;;;;;;;;;5013339;28;20737;-85
2022/11/14 08:57:58;;;;;;;11.20;10.00;;;;;;;;;;5013331;28;20326;-84
2022/11/14 09:00:26;;;;;;;13.18;10.48;;;;;;;;;;5013331;28;20771;-83
2022/11/14 09:02:53;;;;;;;11.00;9.77;;;;;;;;;;5012762;28;20282;-86
2022/11/14 09:05:21;;;;;;;12.77;11.13;;;;;;;;;;5012876;28;20333;-85
2022/11/14 09:07:48;;;;;;;13.27;10.13;;;;;;;;;;5013416;28;20206;-85
2022/11/14 09:10:16;;;;;;;12.00;10.35;;;;;;;;;;5012667;28;20313;-85
2022/11/14 09:12:44;;;;;;;11.05;8.80;;;;;;;;;;5030608;28;20311;-89
2022/11/14 09:15:13;;;;;;;10.80;9.70;;;;;;;;;;5032964;28;20198;-86
2022/11/14 09:17:40;;;;;;;12.27;11.00;;;;;;;;;;5033037;28;20301;-89
2022/11/14 09:20:09;;;;;;;11.30;9.18;;;;;;;;;;5032257;28;20322;-89
2022/11/14 09:22:37;;;;;;;11.93;10.05;;;;;;;;;;5032550;28;20285;-89
2022/11/14 09:25:16;;;;;;;11.93;8.93;;;;;;;;;;5032559;28;20297;-89
2022/11/14 09:27:43;;;;;;;13.45;11.68;;;;;;;;;;5032951;28;20571;-90
2022/11/14 09:30:14;;;;;;;13.70;11.70;;;;;;;;;;5032512;28;20268;-89
2022/11/14 09:32:42;;;;;;;13.27;11.80;;;;;;;;;;5033119;28;20237;-90
2022/11/14 09:35:11;;;;;;;14.40;11.93;;;;;;;;;;5032646;28;20715;-88
2022/11/14 09:37:39;;;;;;;11.23;10.10;;;;;;;;;;5032331;28;20253;-89
2022/11/14 09:40:08;;;;;;;13.35;10.57;;;;;;;;;;5030779;28;20222;-88
2022/11/14 09:43:01;;;;;;;12.43;10.43;;;;;;;;;;5032561;28;20194;-89
2022/11/14 09:45:30;;;;;;;11.27;8.82;;;;;;;;;;5032539;28;20233;-86
2022/11/14 09:48:06;;;;;;;9.50;8.27;;;;;;;;;;5032629;28;20686;-87
2022/11/14 09:50:40;;;;;;;8.90;8.10;;;;;;;;;;5032511;28;20305;-88
2022/11/14 09:53:16;;;;;;;9.40;8.05;;;;;;;;;;5032675;28;20329;-88
2022/11/14 09:55:44;;;;;;;7.07;6.25;;;;;;;;;;5032540;28;20210;-85
2022/11/14 09:58:18;;;;;;;8.38;7.55;;;;;;;;;;5032648;28;20710;-87
2022/11/14 10:00:52;;;;;;;7.00;6.38;;;;;;;;;;5032340;28;20225;-85
2022/11/14 10:03:27;;;;;;;8.07;7.38;;;;;;;;;;5032950;28;20229;-85
2022/11/14 10:06:24;;;;;;;7.82;7.13;;;;;;;;;;5033236;28;20296;-87
2022/11/14 10:09:29;;;;;;;9.05;8.10;;;;;;;;;;5032629;28;20614;-88
2022/11/14 10:12:03;;;;;;;7.88;7.07;;;;;;;;;;5032388;28;20305;-87
2022/11/14 10:14:58;;;;;;;10.70;8.38;;;;;;;;;;5032532;28;20286;-87
2022/11/14 10:17:56;;;;;;;7.93;7.13;;;;;;;;;;5032358;28;20193;-89
2022/11/14 10:20:30;;;;;;;8.10;7.30;;;;;;;;;;5029246;28;20314;-89
2022/11/14 10:23:30;;;;;;;8.85;7.82;;;;;;;;;;5032208;28;20623;-88
2022/11/14 10:26:09;;;;;;;6.90;6.20;;;;;;;;;;5032224;28;20197;-89
2022/11/14 10:28:53;;;;;;;9.10;8.00;;;;;;;;;;5032029;28;20198;-87
2022/11/14 10:31:30;;;;;;;7.28;6.57;;;;;;;;;;5033185;28;20585;-87
2022/11/14 10:34:05;;;;;;;9.52;7.70;;;;;;;;;;5032521;28;20206;-89
2022/11/14 10:36:54;;;;;;;10.50;7.95;;;;;;;;;;5032396;28;20265;-89
2022/11/14 10:39:24;;;;;;;8.57;7.78;;;;;;;;;;5032347;28;20226;-89
2022/11/14 10:41:56;;;;;;;7.85;7.15;;;;;;;;;;5032230;28;20232;-87
2022/11/14 10:44:30;;;;;;;8.10;7.40;;;;;;;;;;5032474;28;20194;-89
2022/11/14 10:47:04;;;;;;;8.60;7.57;;;;;;;;;;5032397;28;20678;-88
2022/11/14 10:49:36;;;;;;;8.27;7.47;;;;;;;;;;5032092;28;20222;-88
2022/11/14 10:52:09;;;;;;;6.72;6.13;;;;;;;;;;5034281;28;20186;-86
2022/11/14 10:54:42;;;;;;;7.70;6.78;;;;;;;;;;5036398;28;20214;-85
2022/11/14 10:57:17;;;;;;;7.13;6.28;;;;;;;;;;5036022;28;20206;-86
2022/11/14 10:59:44;;;;;;;6.72;6.05;;;;;;;;;;5035990;28;20313;-85
2022/11/14 11:02:12;;;;;;;8.32;7.35;;;;;;;;;;5036107;28;20202;-85
2022/11/14 11:04:43;;;;;;;7.00;6.35;;;;;;;;;;5036106;28;20210;-90
2022/11/14 11:13:09;;;;;;;7.07;6.38;;;;;;;;;;5035428;28;20214;-86
2022/11/14 11:15:42;;;;;;;9.25;8.32;;;;;;;;;;5035608;28;20230;-86
2022/11/14 11:18:27;;;;;;;7.78;6.97;;;;;;;;;;5035557;28;20293;-88
2022/11/14 11:21:18;;;;;;;10.25;7.78;;;;;;;;;;5035881;28;20228;-90
2022/11/14 11:23:57;;;;;;;6.07;5.47;;;;;;;;;;5036272;28;20240;-88
2022/11/14 11:26:42;;;;;;;7.97;7.18;;;;;;;;;;5036098;28;20689;-89
2022/11/14 11:29:17;;;;;;;7.53;6.82;;;;;;;;;;5036237;28;20209;-87
2022/11/14 11:31:52;;;;;;;7.18;6.57;;;;;;;;;;5036083;28;20186;-88
2022/11/14 11:34:25;;;;;;;6.80;6.00;;;;;;;;;;5035608;28;20236;-86
2022/11/14 11:37:00;;;;;;;7.43;6.65;;;;;;;;;;5035747;28;20303;-86
2022/11/14 11:39:31;;;;;;;7.15;6.53;;;;;;;;;;5034981;28;20268;-88
2022/11/14 11:42:02;;;;;;;7.68;6.90;;;;;;;;;;5035852;28;20222;-88
2022/11/14 11:44:36;;;;;;;8.20;7.43;;;;;;;;;;5035619;28;20182;-86
2022/11/14 11:47:09;;;;;;;6.47;5.88;;;;;;;;;;5035881;28;20218;-87
2022/11/14 11:49:43;;;;;;;5.95;5.35;;;;;;;;;;5036227;28;20261;-90
2022/11/14 11:52:24;;;;;;;7.22;6.38;;;;;;;;;;5036884;28;20236;-90
2022/11/14 11:54:59;;;;;;;6.38;5.78;;;;;;;;;;5036293;28;20182;-83
2022/11/14 11:57:34;;;;;;;7.22;6.05;;;;;;;;;;5035841;28;20218;-89
2022/11/14 12:00:07;;;;;;;6.13;5.55;;;;;;;;;;5034903;28;20226;-89
2022/11/14 12:02:43;;;;;;;5.70;5.20;;;;;;;;;;5034442;28;20282;-89
2022/11/14 12:05:16;;;;;;;5.53;4.90;;;;;;;;;;5035010;28;20190;-88
2022/11/14 12:07:51;;;;;;;6.45;5.75;;;;;;;;;;5035250;28;20268;-88
2022/11/14 12:10:23;;;;;;;6.72;6.13;;;;;;;;;;5035650;28;20229;-90
2022/11/14 12:13:43;;;;;;;7.55;6.72;;;;;;;;;;5035001;28;20333;-90
2022/11/14 12:16:28;;;;;;;7.68;6.97;;;;;;;;;;5007590;28;20651;-89
2022/11/14 12:19:44;;;;;;;6.90;6.20;;;;;;;;;;5035176;28;20273;-88
2022/11/14 12:22:44;;;;;;;6.53;5.97;;;;;;;;;;5025433;28;20213;-89
2022/11/14 12:25:42;;;;;;;6.22;5.63;;;;;;;;;;5029276;28;20643;-87
2022/11/14 12:28:24;;;;;;;5.85;5.28;;;;;;;;;;5034490;28;20230;-88
2022/11/14 12:30:53;;;;;;;6.35;5.75;;;;;;;;;;5034839;28;20256;-89
2022/11/14 12:33:25;;;;;;;6.47;5.68;;;;;;;;;;5034466;28;20226;-89
2022/11/14 12:35:58;;;;;;;7.55;6.18;;;;;;;;;;5035025;28;20524;-87
2022/11/14 12:38:28;;;;;;;7.22;6.45;;;;;;;;;;5034708;28;20282;-87
2022/11/14 12:40:59;;;;;;;6.30;5.35;;;;;;;;;;5034267;28;20218;-89
2022/11/14 12:43:35;;;;;;;6.82;6.22;;;;;;;;;;5035163;28;20725;-88
2022/11/14 12:46:07;;;;;;;7.07;6.07;;;;;;;;;;5034665;28;20287;-88
2022/11/14 12:48:37;;;;;;;6.47;5.88;;;;;;;;;;5034442;28;20193;-87
2022/11/14 12:51:22;;;;;;;6.60;5.93;;;;;;;;;;5033624;28;20218;-87
2022/11/14 12:53:50;;;;;;;5.47;4.97;;;;;;;;;;5033759;28;20707;-88
2022/11/14 12:56:53;;;;;;;6.22;5.68;;;;;;;;;;5034024;28;20238;-87
2022/11/14 12:59:47;;;;;;;6.70;5.75;;;;;;;;;;5034120;28;20186;-88
2022/11/14 13:02:34;;;;;;;6.35;5.70;;;;;;;;;;5034164;28;20186;-88
2022/11/14 13:05:26;;;;;;;6.55;5.95;;;;;;;;;;5034094;28;20219;-88
2022/11/14 13:08:09;;;;;;;6.05;5.45;;;;;;;;;;5034451;28;20222;-89
2022/11/14 13:10:39;;;;;;;6.05;5.47;;;;;;;;;;5048553;22;20319;-81
2022/11/14 13:21:47;;;;;;;6.22;5.43;;;;;;;;;;5032418;28;20205;-79
2022/11/14 13:24:16;;;;;;;5.72;5.22;;;;;;;;;;5031967;28;20590;-78
2022/11/14 13:26:50;;;;;;;6.10;5.60;;;;;;;;;;5032040;28;20226;-79
2022/11/14 13:30:00;;;;;;;6.88;6.25;;;;;;;;;;5032232;28;20202;-81
2022/11/14 13:32:54;;;;;;;6.50;5.90;;;;;;;;;;5032735;28;20206;-79
2022/11/14 13:35:48;;;;;;;5.05;4.53;;;;;;;;;;5033106;28;20222;-79
2022/11/14 13:39:04;;;;;;;6.25;5.35;;;;;;;;;;5059805;22;20324;-80
2022/11/14 13:42:18;;;;;;;6.15;5.30;;;;;;;;;;5054566;28;20275;-81
2022/11/14 13:45:32;;;;;;;4.57;4.18;;;;;;;;;;5051337;28;20208;-81
2022/11/14 13:48:56;;;;;;;5.47;4.85;;;;;;;;;;5056110;28;20236;-80
2022/11/14 13:51:25;;;;;;;5.65;4.80;;;;;;;;;;5019733;28;20285;-81
2022/11/14 13:53:53;;;;;;;5.57;5.07;;;;;;;;;;5055622;28;20253;-79
2022/11/14 13:56:31;;;;;;;5.38;4.88;;;;;;;;;;5054678;28;20237;-80
2022/11/14 13:59:33;;;;;;;5.70;5.20;;;;;;;;;;5054399;28;20299;-81
2022/11/14 14:02:28;;;;;;;5.45;4.95;;;;;;;;;;5047696;28;20227;-80
2022/11/14 14:05:04;;;;;;;4.90;4.40;;;;;;;;;;5054750;28;20284;-80
2022/11/14 14:07:45;;;;;;;5.45;4.55;;;;;;;;;;5054659;28;20201;-81
2022/11/14 14:10:25;;;;;;;4.47;3.65;;;;;;;;;;5054064;28;20292;-81
2022/11/14 14:13:07;;;;;;;4.80;4.32;;;;;;;;;;5054558;28;20209;-80
2022/11/14 14:15:41;;;;;;;4.85;4.32;;;;;;;;;;5054615;28;20665;-79
2022/11/14 14:18:19;;;;;;;4.32;3.92;;;;;;;;;;5055499;28;20311;-80
2022/11/14 14:20:52;;;;;;;4.15;3.75;;;;;;;;;;5056174;28;20296;-80
2022/11/14 14:23:32;;;;;;;4.43;4.03;;;;;;;;;;5055874;28;20205;-80
2022/11/14 14:26:07;;;;;;;3.88;3.58;;;;;;;;;;5057367;28;20695;-81
2022/11/14 14:28:44;;;;;;;4.95;4.20;;;;;;;;;;5060648;28;20248;-80
2022/11/14 14:31:15;;;;;;;5.43;4.80;;;;;;;;;;5060156;28;20212;-80
2022/11/14 14:33:46;;;;;;;5.88;3.85;;;;;;;;;;5059647;28;20201;-81
2022/11/14 14:36:25;;;;;;;6.13;4.13;;;;;;;;;;5058935;28;20225;-80
2022/11/14 14:39:16;;;;;;;5.20;4.80;;;;;;;;;;5058823;28;20328;-81
2022/11/14 14:41:43;;;;;;;3.17;2.90;;;;;;;;;;5071646;28;20205;-80
2022/11/14 14:44:22;;;;;;;4.53;4.13;;;;;;;;;;5079626;28;20211;-81
2022/11/14 14:46:49;;;;;;;3.67;3.28;;;;;;;;;;5079493;28;20645;-80
2022/11/14 14:49:24;;;;;;;4.43;4.03;;;;;;;;;;5079474;28;20604;-81
2022/11/14 14:51:52;;;;;;;4.25;3.85;;;;;;;;;;5081016;28;20634;-80
2022/11/14 14:54:22;;;;;;;3.35;3.13;;;;;;;;;;5078349;28;20223;-81
2022/11/14 14:56:59;;;;;;;5.10;4.60;;;;;;;;;;5079025;28;20303;-80
2022/11/14 14:59:30;;;;;;;3.72;3.38;;;;;;;;;;5078070;28;20229;-80
2022/11/14 15:01:58;;;;;;;4.28;3.88;;;;;;;;;;5078477;28;20269;-81
2022/11/14 15:04:28;;;;;;;3.60;3.13;;;;;;;;;;5078042;28;20292;-81
2022/11/14 15:06:57;;;;;;;3.75;3.45;;;;;;;;;;5077698;28;20258;-81
2022/11/14 15:09:28;;;;;;;3.75;3.22;;;;;;;;;;5078280;28;20225;-80
2022/11/14 15:11:59;;;;;;;3.25;2.95;;;;;;;;;;5067498;28;20213;-81
2022/11/14 15:14:30;;;;;;;3.85;3.53;;;;;;;;;;5057848;28;20205;-81
2022/11/14 15:16:59;;;;;;;4.10;3.70;;;;;;;;;;5057590;28;20270;-81
2022/11/14 15:19:34;;;;;;;5.03;3.78;;;;;;;;;;5057143;28;20305;-82
2022/11/14 15:22:04;;;;;;;4.22;3.85;;;;;;;;;;5056599;28;20685;-80